sensor_id;sensor_type;location;lat;lon;timestamp;pressure;altitude;pressure_sealevel;temperature;humidity
59650;BME280;46162;57.568;25.814;2022-12-08T00:00:13;99186.34;;;-4.87;100.00
59650;BME280;46162;57.568;25.814;2022-12-08T00:02:43;99182.34;;;-4.79;100.00
59650;BME280;46162;57.568;25.814;2022-12-08T00:05:12;99185.03;;;-4.80;100.00
59650;BME280;46162;57.568;25.814;2022-12-08T00:08:00;99188.44;;;-4.78;100.00
59650;BME280;46162;57.568;25.814;2022-12-08T00:10:54;99182.63;;;-4.69;100.00
59650;BME280;46162;57.568;25.814;2022-12-08T00:13:24;99188.75;;;-4.68;100.00
59650;BME280;46162;57.568;25.814;2022-12-08T00:15:54;99190.53;;;-4.69;100.00
59650;BME280;46162;57.568;25.814;2022-12-08T00:18:27;99182.25;;;-4.63;100.00
59650;BME280;46162;57.568;25.814;2022-12-08T00:20:56;99189.31;;;-4.63;100.00
59650;BME280;46162;57.568;25.814;2022-12-08T00:23:26;99193.47;;;-4.59;100.00
59650;BME280;46162;57.568;25.814;2022-12-08T00:25:55;99191.84;;;-4.62;100.00
59650;BME280;46162;57.568;25.814;2022-12-08T00:28:24;99184.53;;;-4.57;100.00
59650;BME280;46162;57.568;25.814;2022-12-08T00:30:53;99189.97;;;-4.45;100.00
59650;BME280;46162;57.568;25.814;2022-12-08T00:33:21;99188.19;;;-4.59;100.00
59650;BME280;46162;57.568;25.814;2022-12-08T00:35:50;99193.91;;;-4.53;100.00
59650;BME280;46162;57.568;25.814;2022-12-08T00:38:19;99191.97;;;-4.49;100.00
59650;BME280;46162;57.568;25.814;2022-12-08T00:40:49;99188.56;;;-4.51;100.00
59650;BME280;46162;57.568;25.814;2022-12-08T00:43:18;99190.28;;;-4.50;100.00
59650;BME280;46162;57.568;25.814;2022-12-08T00:45:47;99192.59;;;-4.45;100.00
59650;BME280;46162;57.568;25.814;2022-12-08T00:48:16;99181.50;;;-4.50;100.00
59650;BME280;46162;57.568;25.814;2022-12-08T00:50:45;99181.03;;;-4.43;100.00
59650;BME280;46162;57.568;25.814;2022-12-08T00:53:14;99179.81;;;-4.37;100.00
59650;BME280;46162;57.568;25.814;2022-12-08T00:55:42;99187.06;;;-4.26;100.00
59650;BME280;46162;57.568;25.814;2022-12-08T00:58:13;99184.13;;;-4.22;100.00
59650;BME280;46162;57.568;25.814;2022-12-08T01:00:42;99186.38;;;-4.16;100.00
59650;BME280;46162;57.568;25.814;2022-12-08T01:03:12;99180.94;;;-4.27;100.00
59650;BME280;46162;57.568;25.814;2022-12-08T01:05:41;99188.09;;;-4.29;100.00
59650;BME280;46162;57.568;25.814;2022-12-08T01:08:10;99189.22;;;-4.19;100.00
59650;BME280;46162;57.568;25.814;2022-12-08T01:10:39;99190.06;;;-4.18;100.00
59650;BME280;46162;57.568;25.814;2022-12-08T01:13:08;99192.03;;;-4.22;100.00
59650;BME280;46162;57.568;25.814;2022-12-08T01:15:38;99189.59;;;-4.25;100.00
59650;BME280;46162;57.568;25.814;2022-12-08T01:18:07;99194.19;;;-4.28;100.00
59650;BME280;46162;57.568;25.814;2022-12-08T01:20:36;99187.06;;;-4.12;100.00
59650;BME280;46162;57.568;25.814;2022-12-08T01:23:05;99188.25;;;-4.03;100.00
59650;BME280;46162;57.568;25.814;2022-12-08T01:25:34;99183.44;;;-3.97;100.00
59650;BME280;46162;57.568;25.814;2022-12-08T01:28:02;99187.03;;;-3.98;100.00
59650;BME280;46162;57.568;25.814;2022-12-08T01:30:31;99174.13;;;-4.02;100.00
59650;BME280;46162;57.568;25.814;2022-12-08T01:33:01;99186.16;;;-3.98;100.00
59650;BME280;46162;57.568;25.814;2022-12-08T01:35:30;99184.47;;;-3.99;100.00
59650;BME280;46162;57.568;25.814;2022-12-08T01:37:59;99171.22;;;-3.98;100.00
59650;BME280;46162;57.568;25.814;2022-12-08T01:40:28;99175.25;;;-3.92;100.00
59650;BME280;46162;57.568;25.814;2022-12-08T01:42:56;99172.06;;;-3.97;100.00
59650;BME280;46162;57.568;25.814;2022-12-08T01:45:26;99169.00;;;-3.91;100.00
59650;BME280;46162;57.568;25.814;2022-12-08T01:47:59;99170.72;;;-3.90;100.00
59650;BME280;46162;57.568;25.814;2022-12-08T01:50:31;99169.78;;;-3.89;100.00
59650;BME280;46162;57.568;25.814;2022-12-08T01:53:07;99174.00;;;-3.86;100.00
59650;BME280;46162;57.568;25.814;2022-12-08T01:55:40;99177.31;;;-3.83;100.00
59650;BME280;46162;57.568;25.814;2022-12-08T01:58:13;99177.69;;;-3.89;100.00
59650;BME280;46162;57.568;25.814;2022-12-08T02:00:44;99181.41;;;-3.79;100.00
59650;BME280;46162;57.568;25.814;2022-12-08T02:03:16;99173.00;;;-3.71;100.00
59650;BME280;46162;57.568;25.814;2022-12-08T02:05:49;99169.78;;;-3.62;100.00
59650;BME280;46162;57.568;25.814;2022-12-08T02:08:19;99175.00;;;-3.75;100.00
59650;BME280;46162;57.568;25.814;2022-12-08T02:10:50;99172.84;;;-3.68;100.00
59650;BME280;46162;57.568;25.814;2022-12-08T02:13:20;99170.28;;;-3.70;100.00
59650;BME280;46162;57.568;25.814;2022-12-08T02:15:57;99177.41;;;-3.57;100.00
59650;BME280;46162;57.568;25.814;2022-12-08T02:18:53;99170.69;;;-3.49;100.00
59650;BME280;46162;57.568;25.814;2022-12-08T02:21:51;99162.47;;;-3.44;100.00
59650;BME280;46162;57.568;25.814;2022-12-08T02:24:29;99176.28;;;-3.53;100.00
59650;BME280;46162;57.568;25.814;2022-12-08T02:27:17;99176.19;;;-3.39;100.00
59650;BME280;46162;57.568;25.814;2022-12-08T02:30:07;99170.59;;;-3.47;100.00
59650;BME280;46162;57.568;25.814;2022-12-08T02:35:44;99173.16;;;-3.33;100.00
59650;BME280;46162;57.568;25.814;2022-12-08T02:38:24;99179.06;;;-3.29;100.00
59650;BME280;46162;57.568;25.814;2022-12-08T02:41:06;99174.50;;;-3.40;100.00
59650;BME280;46162;57.568;25.814;2022-12-08T02:43:40;99173.47;;;-3.37;100.00
59650;BME280;46162;57.568;25.814;2022-12-08T02:46:12;99168.22;;;-3.25;100.00
59650;BME280;46162;57.568;25.814;2022-12-08T02:48:44;99168.47;;;-3.42;100.00
59650;BME280;46162;57.568;25.814;2022-12-08T02:51:14;99173.75;;;-3.42;100.00
59650;BME280;46162;57.568;25.814;2022-12-08T02:53:44;99169.53;;;-3.44;100.00
59650;BME280;46162;57.568;25.814;2022-12-08T02:56:22;99170.59;;;-3.47;100.00
59650;BME280;46162;57.568;25.814;2022-12-08T02:59:15;99175.66;;;-3.44;100.00
59650;BME280;46162;57.568;25.814;2022-12-08T03:01:57;99169.84;;;-3.49;100.00
59650;BME280;46162;57.568;25.814;2022-12-08T03:04:37;99160.69;;;-3.43;100.00
59650;BME280;46162;57.568;25.814;2022-12-08T03:07:20;99166.22;;;-3.34;100.00
59650;BME280;46162;57.568;25.814;2022-12-08T03:09:54;99158.91;;;-3.30;100.00
59650;BME280;46162;57.568;25.814;2022-12-08T03:12:27;99163.47;;;-3.19;100.00
59650;BME280;46162;57.568;25.814;2022-12-08T03:15:02;99158.63;;;-3.26;100.00
59650;BME280;46162;57.568;25.814;2022-12-08T03:17:32;99159.28;;;-3.09;100.00
59650;BME280;46162;57.568;25.814;2022-12-08T03:20:04;99164.59;;;-2.96;100.00
59650;BME280;46162;57.568;25.814;2022-12-08T03:22:39;99155.78;;;-3.22;100.00
59650;BME280;46162;57.568;25.814;2022-12-08T03:25:12;99151.78;;;-3.15;100.00
59650;BME280;46162;57.568;25.814;2022-12-08T03:27:42;99156.97;;;-3.01;100.00
59650;BME280;46162;57.568;25.814;2022-12-08T03:30:12;99146.41;;;-3.01;100.00
59650;BME280;46162;57.568;25.814;2022-12-08T03:32:43;99147.63;;;-3.19;100.00
59650;BME280;46162;57.568;25.814;2022-12-08T03:35:16;99140.31;;;-2.89;100.00
59650;BME280;46162;57.568;25.814;2022-12-08T03:37:49;99148.00;;;-3.11;100.00
59650;BME280;46162;57.568;25.814;2022-12-08T03:40:19;99148.53;;;-3.06;100.00
59650;BME280;46162;57.568;25.814;2022-12-08T03:42:48;99147.56;;;-3.05;100.00
59650;BME280;46162;57.568;25.814;2022-12-08T03:45:17;99154.72;;;-3.07;100.00
59650;BME280;46162;57.568;25.814;2022-12-08T03:47:45;99142.50;;;-3.08;100.00
59650;BME280;46162;57.568;25.814;2022-12-08T03:50:14;99147.25;;;-3.00;100.00
59650;BME280;46162;57.568;25.814;2022-12-08T03:52:43;99146.41;;;-3.01;100.00
59650;BME280;46162;57.568;25.814;2022-12-08T03:55:13;99149.38;;;-2.93;100.00
59650;BME280;46162;57.568;25.814;2022-12-08T03:57:43;99149.81;;;-2.86;100.00
59650;BME280;46162;57.568;25.814;2022-12-08T04:00:14;99146.13;;;-2.84;100.00
59650;BME280;46162;57.568;25.814;2022-12-08T04:02:43;99150.88;;;-2.89;100.00
59650;BME280;46162;57.568;25.814;2022-12-08T04:05:12;99153.16;;;-2.97;100.00
59650;BME280;46162;57.568;25.814;2022-12-08T04:07:41;99145.97;;;-2.95;100.00
59650;BME280;46162;57.568;25.814;2022-12-08T04:10:10;99146.34;;;-2.87;100.00
59650;BME280;46162;57.568;25.814;2022-12-08T04:12:40;99145.88;;;-2.68;100.00
59650;BME280;46162;57.568;25.814;2022-12-08T04:15:10;99137.56;;;-2.74;100.00
59650;BME280;46162;57.568;25.814;2022-12-08T04:17:39;99141.34;;;-2.66;100.00
59650;BME280;46162;57.568;25.814;2022-12-08T04:20:08;99141.78;;;-2.46;100.00
59650;BME280;46162;57.568;25.814;2022-12-08T04:22:38;99137.75;;;-2.52;100.00
59650;BME280;46162;57.568;25.814;2022-12-08T04:25:07;99145.78;;;-2.53;100.00
59650;BME280;46162;57.568;25.814;2022-12-08T04:27:36;99143.66;;;-2.48;100.00
59650;BME280;46162;57.568;25.814;2022-12-08T04:30:08;99148.53;;;-2.55;100.00
59650;BME280;46162;57.568;25.814;2022-12-08T04:32:37;99143.06;;;-2.52;100.00
59650;BME280;46162;57.568;25.814;2022-12-08T04:35:13;99135.22;;;-2.53;100.00
59650;BME280;46162;57.568;25.814;2022-12-08T04:37:42;99140.81;;;-2.58;100.00
59650;BME280;46162;57.568;25.814;2022-12-08T04:40:13;99146.41;;;-2.37;100.00
59650;BME280;46162;57.568;25.814;2022-12-08T04:42:43;99142.16;;;-2.27;100.00
59650;BME280;46162;57.568;25.814;2022-12-08T04:45:14;99149.34;;;-2.29;100.00
59650;BME280;46162;57.568;25.814;2022-12-08T04:47:43;99156.00;;;-2.23;100.00
59650;BME280;46162;57.568;25.814;2022-12-08T04:50:13;99143.63;;;-2.10;100.00
59650;BME280;46162;57.568;25.814;2022-12-08T04:52:42;99146.97;;;-2.08;100.00
59650;BME280;46162;57.568;25.814;2022-12-08T04:55:11;99150.50;;;-2.20;100.00
59650;BME280;46162;57.568;25.814;2022-12-08T04:57:40;99140.13;;;-2.23;100.00
59650;BME280;46162;57.568;25.814;2022-12-08T05:00:13;99138.75;;;-2.16;100.00
59650;BME280;46162;57.568;25.814;2022-12-08T05:02:42;99143.63;;;-2.23;100.00
59650;BME280;46162;57.568;25.814;2022-12-08T05:05:11;99137.06;;;-2.17;100.00
59650;BME280;46162;57.568;25.814;2022-12-08T05:07:40;99137.47;;;-2.10;100.00
59650;BME280;46162;57.568;25.814;2022-12-08T05:10:09;99130.59;;;-2.00;100.00
59650;BME280;46162;57.568;25.814;2022-12-08T05:12:38;99129.00;;;-2.03;100.00
59650;BME280;46162;57.568;25.814;2022-12-08T05:15:08;99127.09;;;-2.13;100.00
59650;BME280;46162;57.568;25.814;2022-12-08T05:17:39;99119.91;;;-2.11;100.00
59650;BME280;46162;57.568;25.814;2022-12-08T05:20:09;99122.47;;;-2.10;100.00
59650;BME280;46162;57.568;25.814;2022-12-08T05:22:38;99123.53;;;-2.12;100.00
59650;BME280;46162;57.568;25.814;2022-12-08T05:25:09;99119.69;;;-2.08;100.00
59650;BME280;46162;57.568;25.814;2022-12-08T05:27:39;99125.75;;;-2.19;100.00
59650;BME280;46162;57.568;25.814;2022-12-08T05:30:09;99128.78;;;-2.00;100.00
59650;BME280;46162;57.568;25.814;2022-12-08T05:32:40;99123.25;;;-1.97;100.00
59650;BME280;46162;57.568;25.814;2022-12-08T05:35:10;99122.84;;;-2.03;100.00
59650;BME280;46162;57.568;25.814;2022-12-08T05:37:40;99119.09;;;-2.12;100.00
59650;BME280;46162;57.568;25.814;2022-12-08T05:40:10;99112.81;;;-2.11;100.00
59650;BME280;46162;57.568;25.814;2022-12-08T05:42:39;99111.75;;;-2.08;100.00
59650;BME280;46162;57.568;25.814;2022-12-08T05:45:09;99103.63;;;-2.18;100.00
59650;BME280;46162;57.568;25.814;2022-12-08T05:47:40;99111.88;;;-2.10;100.00
59650;BME280;46162;57.568;25.814;2022-12-08T05:50:09;99110.31;;;-1.88;100.00
59650;BME280;46162;57.568;25.814;2022-12-08T05:52:38;99104.28;;;-1.90;100.00
59650;BME280;46162;57.568;25.814;2022-12-08T05:55:08;99108.34;;;-1.98;100.00
59650;BME280;46162;57.568;25.814;2022-12-08T05:57:37;99113.41;;;-1.95;100.00
59650;BME280;46162;57.568;25.814;2022-12-08T06:00:07;99117.50;;;-1.90;100.00
59650;BME280;46162;57.568;25.814;2022-12-08T06:02:41;99115.44;;;-1.98;100.00
59650;BME280;46162;57.568;25.814;2022-12-08T06:05:10;99115.09;;;-1.93;100.00
59650;BME280;46162;57.568;25.814;2022-12-08T06:07:38;99107.56;;;-1.87;100.00
59650;BME280;46162;57.568;25.814;2022-12-08T06:10:08;99116.81;;;-1.92;100.00
59650;BME280;46162;57.568;25.814;2022-12-08T06:12:38;99117.19;;;-1.86;100.00
59650;BME280;46162;57.568;25.814;2022-12-08T06:15:07;99122.84;;;-2.03;100.00
59650;BME280;46162;57.568;25.814;2022-12-08T06:17:36;99128.69;;;-2.11;100.00
59650;BME280;46162;57.568;25.814;2022-12-08T06:20:07;99122.25;;;-2.07;100.00
59650;BME280;46162;57.568;25.814;2022-12-08T06:22:36;99123.25;;;-1.97;100.00
59650;BME280;46162;57.568;25.814;2022-12-08T06:25:05;99124.59;;;-1.91;100.00
59650;BME280;46162;57.568;25.814;2022-12-08T06:27:36;99125.41;;;-2.02;100.00
59650;BME280;46162;57.568;25.814;2022-12-08T06:30:06;99123.25;;;-1.97;100.00
59650;BME280;46162;57.568;25.814;2022-12-08T06:32:35;99118.44;;;-2.03;100.00
59650;BME280;46162;57.568;25.814;2022-12-08T06:35:06;99119.47;;;-2.05;100.00
59650;BME280;46162;57.568;25.814;2022-12-08T06:37:35;99113.34;;;-2.06;100.00
59650;BME280;46162;57.568;25.814;2022-12-08T06:40:06;99117.75;;;-1.93;100.00
59650;BME280;46162;57.568;25.814;2022-12-08T06:42:36;99121.06;;;-2.03;100.00
59650;BME280;46162;57.568;25.814;2022-12-08T06:45:17;99116.50;;;-2.01;100.00
59650;BME280;46162;57.568;25.814;2022-12-08T06:47:45;99112.34;;;-1.92;100.00
59650;BME280;46162;57.568;25.814;2022-12-08T06:50:16;99119.66;;;-1.96;100.00
59650;BME280;46162;57.568;25.814;2022-12-08T06:52:46;99111.09;;;-1.99;100.00
59650;BME280;46162;57.568;25.814;2022-12-08T06:55:29;99106.13;;;-2.04;100.00
59650;BME280;46162;57.568;25.814;2022-12-08T06:58:18;99105.06;;;-2.01;100.00
59650;BME280;46162;57.568;25.814;2022-12-08T07:00:47;99109.28;;;-1.99;100.00
59650;BME280;46162;57.568;25.814;2022-12-08T07:03:16;99112.22;;;-1.90;100.00
59650;BME280;46162;57.568;25.814;2022-12-08T07:05:46;99103.25;;;-2.01;100.00
59650;BME280;46162;57.568;25.814;2022-12-08T07:08:15;99106.50;;;-1.84;100.00
59650;BME280;46162;57.568;25.814;2022-12-08T07:10:44;99100.47;;;-1.86;100.00
59650;BME280;46162;57.568;25.814;2022-12-08T07:13:13;99100.31;;;-1.72;100.00
59650;BME280;46162;57.568;25.814;2022-12-08T07:15:41;99112.19;;;-1.78;100.00
59650;BME280;46162;57.568;25.814;2022-12-08T07:18:10;99103.84;;;-1.84;100.00
59650;BME280;46162;57.568;25.814;2022-12-08T07:20:39;99100.03;;;-1.80;100.00
59650;BME280;46162;57.568;25.814;2022-12-08T07:23:10;99099.69;;;-1.76;100.00
59650;BME280;46162;57.568;25.814;2022-12-08T07:25:38;99100.31;;;-1.72;100.00
59650;BME280;46162;57.568;25.814;2022-12-08T07:28:09;99096.25;;;-1.65;100.00
59650;BME280;46162;57.568;25.814;2022-12-08T07:30:43;99095.19;;;-1.62;100.00
59650;BME280;46162;57.568;25.814;2022-12-08T07:33:11;99096.94;;;-1.74;100.00
59650;BME280;46162;57.568;25.814;2022-12-08T07:35:40;99099.25;;;-1.69;100.00
59650;BME280;46162;57.568;25.814;2022-12-08T07:38:16;99101.63;;;-1.78;100.00
59650;BME280;46162;57.568;25.814;2022-12-08T07:40:46;99095.44;;;-1.78;100.00
59650;BME280;46162;57.568;25.814;2022-12-08T07:43:15;99102.28;;;-1.63;100.00
59650;BME280;46162;57.568;25.814;2022-12-08T07:45:44;99098.16;;;-1.67;100.00
59650;BME280;46162;57.568;25.814;2022-12-08T07:48:13;99095.59;;;-1.80;100.00
59650;BME280;46162;57.568;25.814;2022-12-08T07:50:43;99098.84;;;-1.76;100.00
59650;BME280;46162;57.568;25.814;2022-12-08T07:53:12;99097.31;;;-1.67;100.00
59650;BME280;46162;57.568;25.814;2022-12-08T07:55:43;99100.81;;;-1.67;100.00
59650;BME280;46162;57.568;25.814;2022-12-08T07:58:12;99094.09;;;-1.60;100.00
59650;BME280;46162;57.568;25.814;2022-12-08T08:00:40;99097.66;;;-1.72;100.00
59650;BME280;46162;57.568;25.814;2022-12-08T08:03:10;99097.19;;;-1.66;100.00
59650;BME280;46162;57.568;25.814;2022-12-08T08:05:39;99086.97;;;-1.70;100.00
59650;BME280;46162;57.568;25.814;2022-12-08T08:08:08;99103.22;;;-1.64;100.00
59650;BME280;46162;57.568;25.814;2022-12-08T08:10:37;99080.63;;;-1.68;100.00
59650;BME280;46162;57.568;25.814;2022-12-08T08:13:07;99095.19;;;-1.62;100.00
59650;BME280;46162;57.568;25.814;2022-12-08T08:15:36;99088.91;;;-1.61;100.00
59650;BME280;46162;57.568;25.814;2022-12-08T08:18:06;99083.03;;;-1.65;100.00
59650;BME280;46162;57.568;25.814;2022-12-08T08:20:36;99082.69;;;-1.60;100.00
59650;BME280;46162;57.568;25.814;2022-12-08T08:23:06;99092.06;;;-1.56;100.00
59650;BME280;46162;57.568;25.814;2022-12-08T08:25:34;99091.16;;;-1.44;100.00
59650;BME280;46162;57.568;25.814;2022-12-08T08:28:03;99085.94;;;-1.57;100.00
59650;BME280;46162;57.568;25.814;2022-12-08T08:30:34;99083.53;;;-1.60;100.00
59650;BME280;46162;57.568;25.814;2022-12-08T08:33:03;99092.41;;;-1.61;100.00
59650;BME280;46162;57.568;25.814;2022-12-08T08:35:32;99082.06;;;-1.64;100.00
59650;BME280;46162;57.568;25.814;2022-12-08T08:38:02;99081.44;;;-1.67;100.00
59650;BME280;46162;57.568;25.814;2022-12-08T08:40:30;99088.81;;;-1.60;100.00
59650;BME280;46162;57.568;25.814;2022-12-08T08:43:00;99089.66;;;-1.59;100.00
59650;BME280;46162;57.568;25.814;2022-12-08T08:45:29;99087.41;;;-1.53;100.00
59650;BME280;46162;57.568;25.814;2022-12-08T08:48:00;99088.59;;;-1.57;100.00
59650;BME280;46162;57.568;25.814;2022-12-08T08:50:29;99094.22;;;-1.61;100.00
59650;BME280;46162;57.568;25.814;2022-12-08T08:53:03;99088.59;;;-1.57;100.00
59650;BME280;46162;57.568;25.814;2022-12-08T08:55:32;99089.81;;;-1.49;100.00
59650;BME280;46162;57.568;25.814;2022-12-08T08:58:00;99097.03;;;-1.52;100.00
59650;BME280;46162;57.568;25.814;2022-12-08T09:00:29;99099.34;;;-1.47;100.00
59650;BME280;46162;57.568;25.814;2022-12-08T09:02:59;99104.03;;;-1.50;100.00
59650;BME280;46162;57.568;25.814;2022-12-08T09:05:28;99098.00;;;-1.53;100.00
59650;BME280;46162;57.568;25.814;2022-12-08T09:07:57;99104.97;;;-1.52;100.00
59650;BME280;46162;57.568;25.814;2022-12-08T09:10:26;99107.78;;;-1.42;100.00
59650;BME280;46162;57.568;25.814;2022-12-08T09:12:55;99108.00;;;-1.45;100.00
59650;BME280;46162;57.568;25.814;2022-12-08T09:15:24;99110.75;;;-1.46;100.00
59650;BME280;46162;57.568;25.814;2022-12-08T09:17:53;99103.06;;;-1.49;100.00
59650;BME280;46162;57.568;25.814;2022-12-08T09:20:23;99100.47;;;-1.38;100.00
59650;BME280;46162;57.568;25.814;2022-12-08T09:22:52;99106.69;;;-1.39;100.00
59650;BME280;46162;57.568;25.814;2022-12-08T09:25:21;99115.13;;;-1.34;100.00
59650;BME280;46162;57.568;25.814;2022-12-08T09:27:50;99117.56;;;-1.31;100.00
59650;BME280;46162;57.568;25.814;2022-12-08T09:30:18;99115.03;;;-1.33;100.00
59650;BME280;46162;57.568;25.814;2022-12-08T09:32:47;99124.31;;;-1.27;100.00
59650;BME280;46162;57.568;25.814;2022-12-08T09:35:16;99126.47;;;-1.32;100.00
59650;BME280;46162;57.568;25.814;2022-12-08T09:37:46;99124.69;;;-1.56;100.00
59650;BME280;46162;57.568;25.814;2022-12-08T09:40:18;99138.88;;;-1.57;100.00
59650;BME280;46162;57.568;25.814;2022-12-08T09:42:51;99132.75;;;-1.57;100.00
59650;BME280;46162;57.568;25.814;2022-12-08T09:45:25;99135.16;;;-1.54;100.00
59650;BME280;46162;57.568;25.814;2022-12-08T09:47:59;99137.28;;;-1.59;100.00
59650;BME280;46162;57.568;25.814;2022-12-08T09:50:34;99128.75;;;-1.63;100.00
59650;BME280;46162;57.568;25.814;2022-12-08T09:53:10;99134.25;;;-1.66;100.00
59650;BME280;46162;57.568;25.814;2022-12-08T09:55:47;99138.69;;;-1.66;100.00
59650;BME280;46162;57.568;25.814;2022-12-08T09:58:24;99141.75;;;-1.60;100.00
59650;BME280;46162;57.568;25.814;2022-12-08T10:00:56;99147.13;;;-1.61;100.00
59650;BME280;46162;57.568;25.814;2022-12-08T10:03:27;99144.63;;;-1.63;100.00
59650;BME280;46162;57.568;25.814;2022-12-08T10:06:03;99151.94;;;-1.66;100.00
59650;BME280;46162;57.568;25.814;2022-12-08T10:08:42;99157.13;;;-1.65;100.00
59650;BME280;46162;57.568;25.814;2022-12-08T10:11:20;99158.53;;;-1.72;100.00
59650;BME280;46162;57.568;25.814;2022-12-08T10:13:59;99161.25;;;-1.74;100.00
59650;BME280;46162;57.568;25.814;2022-12-08T10:16:36;99164.13;;;-1.77;100.00
59650;BME280;46162;57.568;25.814;2022-12-08T10:19:14;99173.03;;;-1.78;100.00
59650;BME280;46162;57.568;25.814;2022-12-08T10:21:46;99178.34;;;-1.78;100.00
59650;BME280;46162;57.568;25.814;2022-12-08T10:24:21;99176.03;;;-1.82;100.00
59650;BME280;46162;57.568;25.814;2022-12-08T10:26:54;99176.84;;;-1.82;100.00
59650;BME280;46162;57.568;25.814;2022-12-08T10:29:24;99177.59;;;-1.80;100.00
59650;BME280;46162;57.568;25.814;2022-12-08T10:31:56;99197.06;;;-1.81;100.00
59650;BME280;46162;57.568;25.814;2022-12-08T10:34:26;99194.53;;;-1.82;100.00
59650;BME280;46162;57.568;25.814;2022-12-08T10:36:59;99206.19;;;-1.85;100.00
59650;BME280;46162;57.568;25.814;2022-12-08T10:39:44;99208.00;;;-1.85;100.00
59650;BME280;46162;57.568;25.814;2022-12-08T10:42:18;99203.03;;;-1.90;100.00
59650;BME280;46162;57.568;25.814;2022-12-08T10:44:56;99224.81;;;-1.86;100.00
59650;BME280;46162;57.568;25.814;2022-12-08T10:47:28;99222.28;;;-1.88;100.00
59650;BME280;46162;57.568;25.814;2022-12-08T10:50:19;99232.63;;;-1.85;100.00
59650;BME280;46162;57.568;25.814;2022-12-08T10:52:54;99232.88;;;-1.88;100.00
59650;BME280;46162;57.568;25.814;2022-12-08T10:55:45;99252.00;;;-1.84;100.00
59650;BME280;46162;57.568;25.814;2022-12-08T10:58:25;99266.91;;;-1.83;100.00
59650;BME280;46162;57.568;25.814;2022-12-08T11:00:56;99279.19;;;-1.82;100.00
59650;BME280;46162;57.568;25.814;2022-12-08T11:03:29;99284.59;;;-1.84;100.00
59650;BME280;46162;57.568;25.814;2022-12-08T11:06:25;99297.19;;;-1.87;100.00
59650;BME280;46162;57.568;25.814;2022-12-08T11:09:00;99315.06;;;-1.91;100.00
59650;BME280;46162;57.568;25.814;2022-12-08T11:11:44;99315.38;;;-1.96;100.00
59650;BME280;46162;57.568;25.814;2022-12-08T11:14:17;99335.81;;;-1.98;100.00
59650;BME280;46162;57.568;25.814;2022-12-08T11:16:46;99331.38;;;-2.10;100.00
59650;BME280;46162;57.568;25.814;2022-12-08T11:19:17;99345.66;;;-2.12;100.00
59650;BME280;46162;57.568;25.814;2022-12-08T11:21:47;99357.28;;;-2.15;100.00
59650;BME280;46162;57.568;25.814;2022-12-08T11:24:21;99361.59;;;-2.14;100.00
59650;BME280;46162;57.568;25.814;2022-12-08T11:26:55;99368.38;;;-2.10;100.00
59650;BME280;46162;57.568;25.814;2022-12-08T11:29:27;99387.53;;;-2.06;100.00
59650;BME280;46162;57.568;25.814;2022-12-08T11:32:01;99386.91;;;-2.10;100.00
59650;BME280;46162;57.568;25.814;2022-12-08T11:34:36;99397.47;;;-2.10;100.00
59650;BME280;46162;57.568;25.814;2022-12-08T11:37:15;99404.88;;;-2.15;100.00
59650;BME280;46162;57.568;25.814;2022-12-08T11:39:48;99411.09;;;-2.16;100.00
59650;BME280;46162;57.568;25.814;2022-12-08T11:42:42;99413.94;;;-2.19;100.00
59650;BME280;46162;57.568;25.814;2022-12-08T11:45:29;99416.06;;;-2.24;100.00
59650;BME280;46162;57.568;25.814;2022-12-08T11:48:10;99417.53;;;-2.20;100.00
59650;BME280;46162;57.568;25.814;2022-12-08T11:50:58;99433.22;;;-2.17;100.00
59650;BME280;46162;57.568;25.814;2022-12-08T11:53:40;99438.50;;;-2.17;100.00
59650;BME280;46162;57.568;25.814;2022-12-08T11:56:25;99448.88;;;-2.14;100.00
59650;BME280;46162;57.568;25.814;2022-12-08T11:59:00;99440.63;;;-2.09;100.00
59650;BME280;46162;57.568;25.814;2022-12-08T12:01:35;99448.66;;;-2.11;100.00
59650;BME280;46162;57.568;25.814;2022-12-08T12:04:13;99463.47;;;-2.08;100.00
59650;BME280;46162;57.568;25.814;2022-12-08T12:07:18;99468.88;;;-2.10;100.00
59650;BME280;46162;57.568;25.814;2022-12-08T12:10:23;99481.06;;;-2.07;100.00
59650;BME280;46162;57.568;25.814;2022-12-08T12:13:06;99489.69;;;-2.05;100.00
59650;BME280;46162;57.568;25.814;2022-12-08T12:19:01;99502.59;;;-2.13;100.00
59650;BME280;46162;57.568;25.814;2022-12-08T12:21:33;99506.97;;;-2.12;100.00
59650;BME280;46162;57.568;25.814;2022-12-08T12:24:05;99528.19;;;-2.14;100.00
59650;BME280;46162;57.568;25.814;2022-12-08T12:26:38;99517.81;;;-2.17;100.00
59650;BME280;46162;57.568;25.814;2022-12-08T12:29:19;99541.63;;;-2.17;100.00
59650;BME280;46162;57.568;25.814;2022-12-08T12:31:56;99539.75;;;-2.15;100.00
59650;BME280;46162;57.568;25.814;2022-12-08T12:34:28;99541.97;;;-2.09;100.00
59650;BME280;46162;57.568;25.814;2022-12-08T12:37:05;99552.88;;;-2.01;100.00
59650;BME280;46162;57.568;25.814;2022-12-08T12:40:10;99555.75;;;-2.04;100.00
59650;BME280;46162;57.568;25.814;2022-12-08T12:50:57;99591.47;;;-2.11;100.00
59650;BME280;46162;57.568;25.814;2022-12-08T12:53:47;99589.78;;;-2.12;100.00
59650;BME280;46162;57.568;25.814;2022-12-08T12:56:49;99610.38;;;-2.17;100.00
59650;BME280;46162;57.568;25.814;2022-12-08T12:59:41;99613.41;;;-2.23;100.00
59650;BME280;46162;57.568;25.814;2022-12-08T13:02:19;99611.91;;;-2.27;100.00
59650;BME280;46162;57.568;25.814;2022-12-08T13:04:56;99621.16;;;-2.34;100.00
59650;BME280;46162;57.568;25.814;2022-12-08T13:07:29;99630.41;;;-2.42;100.00
59650;BME280;46162;57.568;25.814;2022-12-08T13:10:02;99634.31;;;-2.47;100.00
59650;BME280;46162;57.568;25.814;2022-12-08T13:12:38;99634.66;;;-2.53;100.00
59650;BME280;46162;57.568;25.814;2022-12-08T13:15:28;99650.44;;;-2.66;100.00
59650;BME280;46162;57.568;25.814;2022-12-08T13:18:01;99646.81;;;-2.79;100.00
59650;BME280;46162;57.568;25.814;2022-12-08T13:21:19;99656.81;;;-2.99;100.00
59650;BME280;46162;57.568;25.814;2022-12-08T13:23:50;99653.78;;;-2.93;100.00